KESN 040245Z 30017G23KT 10SM CLR M06/M21 A3048
From batch tds/metars/production/2023/2/4/h02_m59_metars.cache.csv.gz
Observed at (about 6 hours ago)
Identifier KESN
KESN 040145Z 30016G26KT 10SM CLR M06/M21 A3045
From batch tds/metars/production/2023/2/4/h01_m57_metars.cache.csv.gz
Observed at (about 7 hours ago)
Identifier KESN
KESN 040045Z 30017G29KT 10SM CLR M05/M20 A3042
From batch tds/metars/production/2023/2/4/h00_m53_metars.cache.csv.gz
Observed at (about 8 hours ago)
Identifier KESN
KESN 032345Z 30015G24KT 10SM CLR M04/M20 A3038
From batch tds/metars/production/2023/2/3/h23_m56_metars.cache.csv.gz
Observed at (about 9 hours ago)
Identifier KESN
KESN 032250Z 29017G22KT 10SM CLR M04/M19 A3033
From batch tds/metars/production/2023/2/3/h22_m54_metars.cache.csv.gz
Observed at (about 10 hours ago)
Identifier KESN
KESN 032145Z 29011G21KT 10SM CLR M03/M19 A3029
From batch tds/metars/production/2023/2/3/h21_m59_metars.cache.csv.gz
Observed at (about 11 hours ago)
Identifier KESN
KESN 032045Z 30019G30KT 10SM CLR M02/M19 A3024
From batch tds/metars/production/2023/2/3/h20_m59_metars.cache.csv.gz
Observed at (about 12 hours ago)
Identifier KESN
KESN 031945Z 29015G26KT 10SM SCT100 M01/M17 A3020
From batch tds/metars/production/2023/2/3/h19_m55_metars.cache.csv.gz
Observed at (about 13 hours ago)
Identifier KESN
KESN 031850Z 29025G30KT 10SM SCT100 M01/M17 A3018
From batch tds/metars/production/2023/2/3/h18_m53_metars.cache.csv.gz
Observed at (about 14 hours ago)
Identifier KESN
KESN 031751Z 29018G28KT 10SM SCT100 M02/M17 A3016
From batch tds/metars/production/2023/2/3/h17_m56_metars.cache.csv.gz
Observed at (about 15 hours ago)
Identifier KESN
KESN 031658Z 29017G26KT 10SM SCT100 00/M17 A3016
From batch tds/metars/production/2023/2/3/h17_m20_metars.cache.csv.gz
Observed at (about 16 hours ago)
Identifier KESN
KESN 031550Z 30020G31KT 10SM SCT100 00/M15 A3016
From batch tds/metars/production/2023/2/3/h15_m51_metars.cache.csv.gz
Observed at (about 17 hours ago)
Identifier KESN
KESN 031452Z 32017G31KT 10SM SCT040 00/M09 A3010
From batch tds/metars/production/2023/2/3/h15_m26_metars.cache.csv.gz
Observed at (about 18 hours ago)
Identifier KESN
KESN 031353Z 32013G22KT 10SM SCT040 02/M07 A3007
From batch tds/metars/production/2023/2/3/h13_m55_metars.cache.csv.gz
Observed at (about 19 hours ago)
Identifier KESN
KESN 031250Z 32013G21KT 10SM SCT045 SCT050 03/M04 A3001
From batch tds/metars/production/2023/2/3/h12_m57_metars.cache.csv.gz
Observed at (about 20 hours ago)
Identifier KESN
KESN 031145Z 30013G20KT 10SM SCT070 04/M06 A2996
From batch tds/metars/production/2023/2/3/h11_m59_metars.cache.csv.gz
Observed at (about 21 hours ago)
Identifier KESN
talk